Terminal Aerodrome Forecast
Issued by NWS

Home | Current Version | Previous Version | Text Only | Print | Product List | Glossary On
Versions: 1 2 3 4 5 6 7 8 9 10 11 12
964
FTUS46 KLOX 232346
TAFLGB
TAF
KLGB 232346Z 2400/2424 15011KT 6SM HZ FU BKN150
     FM240200 VRB03KT 6SM HZ FU BKN140
     FM241000 VRB03KT 6SM BR OVC003
     FM241600 16005KT 6SM HZ BKN007
     FM241800 16009KT 6SM HZ SCT010
     FM242100 19008KT P6SM SKC=

USA.gov is the U.S. government's official web portal to all federal, state and local government web resources and services.